createdAt,value
2022-09-14T00:00:20.803Z,48.11
2022-09-14T00:02:55.109Z,48.02
2022-09-14T00:05:32.917Z,47.98
2022-09-14T00:08:10.379Z,47.90
2022-09-14T00:10:53.769Z,47.68
2022-09-14T00:13:44.710Z,47.66
2022-09-14T00:16:49.305Z,47.63
2022-09-14T00:19:57.072Z,47.66
2022-09-14T00:22:41.488Z,47.80
2022-09-14T00:25:23.243Z,47.75
2022-09-14T00:28:03.366Z,47.96
2022-09-14T00:30:46.555Z,47.90
2022-09-14T00:33:24.427Z,47.79
2022-09-14T00:36:46.399Z,48.12
2022-09-14T00:39:28.400Z,48.00
2022-09-14T00:42:11.445Z,47.75
2022-09-14T00:44:50.000Z,47.69
2022-09-14T00:47:22.922Z,47.81
2022-09-14T00:50:00.635Z,48.06
2022-09-14T00:52:55.826Z,48.19
2022-09-14T01:00:16.245Z,48.65
2022-09-14T01:02:55.786Z,48.40
2022-09-14T01:28:48.497Z,48.27
2022-09-14T01:31:44.993Z,47.88
2022-09-14T01:34:35.025Z,47.61
2022-09-14T02:02:08.931Z,48.11
2022-09-14T02:05:36.199Z,48.05
2022-09-14T02:08:40.222Z,47.80
2022-09-14T02:11:44.354Z,47.42
2022-09-14T02:14:32.280Z,47.25
2022-09-14T02:29:35.780Z,47.61
2022-09-14T02:33:43.952Z,47.77
2022-09-14T02:37:00.199Z,47.50
2022-09-14T02:39:54.569Z,46.88
2022-09-14T02:43:10.914Z,46.73
2022-09-14T02:46:35.507Z,47.34
2022-09-14T02:49:47.091Z,47.51
2022-09-14T02:53:02.619Z,46.91
2022-09-14T02:55:44.357Z,48.59
2022-09-14T02:58:20.272Z,47.19
2022-09-14T03:01:40.471Z,46.97
2022-09-14T03:04:24.548Z,46.04
2022-09-14T03:06:59.692Z,45.85
2022-09-14T03:09:48.752Z,45.95
2022-09-14T03:12:24.859Z,45.66
2022-09-14T03:15:04.771Z,45.62
2022-09-14T03:17:51.864Z,45.94
2022-09-14T03:20:30.697Z,47.00
2022-09-14T03:23:12.978Z,47.12
2022-09-14T03:26:30.707Z,47.19
2022-09-14T03:29:11.233Z,47.37
2022-09-14T03:35:11.123Z,47.26
2022-09-14T03:37:52.821Z,46.32
2022-09-14T03:40:28.843Z,45.93
2022-09-14T03:43:32.930Z,46.76
2022-09-14T03:46:16.971Z,46.90
2022-09-14T03:48:57.506Z,46.87
2022-09-14T03:51:37.600Z,46.76
2022-09-14T03:55:14.852Z,47.14
2022-09-14T03:57:59.545Z,47.13
2022-09-14T04:04:08.983Z,46.63
2022-09-14T04:09:46.913Z,46.58
2022-09-14T04:12:48.523Z,46.53
2022-09-14T04:15:56.892Z,46.63
2022-09-14T04:18:35.806Z,46.39
2022-09-14T04:21:28.077Z,46.43
2022-09-14T04:24:16.667Z,46.46
2022-09-14T04:26:49.332Z,46.38
2022-09-14T04:29:21.355Z,46.14
2022-09-14T04:38:08.837Z,46.45
2022-09-14T04:40:50.553Z,46.32
2022-09-14T04:43:23.974Z,46.08
2022-09-14T04:49:20.881Z,46.15
2022-09-14T05:01:54.803Z,46.76
2022-09-14T05:04:31.042Z,46.10
2022-09-14T05:10:52.371Z,45.85
2022-09-14T05:14:00.674Z,45.78
2022-09-14T05:17:04.480Z,45.77
2022-09-14T05:19:43.851Z,45.61
2022-09-14T05:26:12.908Z,45.88
2022-09-14T05:29:21.260Z,45.85
2022-09-14T05:32:28.622Z,45.67
2022-09-14T05:35:24.900Z,45.51
2022-09-14T05:44:26.076Z,45.49
2022-09-14T05:47:31.144Z,45.33
2022-09-14T06:05:11.151Z,46.09
2022-09-14T06:07:56.018Z,45.90
2022-09-14T06:10:47.069Z,45.80
2022-09-14T06:13:48.349Z,45.69
2022-09-14T06:19:51.284Z,45.47
2022-09-14T06:22:52.067Z,45.54
2022-09-14T06:30:50.891Z,46.09
2022-09-14T06:33:56.017Z,45.52
2022-09-14T06:36:59.561Z,45.22
2022-09-14T06:40:03.746Z,45.19
2022-09-14T06:42:49.027Z,45.05
2022-09-14T06:45:29.044Z,44.92
2022-09-14T06:48:03.023Z,45.00
2022-09-14T06:57:48.391Z,45.30
2022-09-14T07:00:23.153Z,45.26
2022-09-14T07:06:49.032Z,45.29
2022-09-14T07:09:30.307Z,44.94
2022-09-14T07:15:27.995Z,44.71
2022-09-14T07:18:35.431Z,43.92
2022-09-14T07:21:16.529Z,44.47
2022-09-14T07:24:17.016Z,43.77
2022-09-14T07:30:23.034Z,44.38
2022-09-14T07:32:53.031Z,43.66
2022-09-14T07:38:53.373Z,43.40
2022-09-14T07:42:14.304Z,43.50
2022-09-14T07:44:53.021Z,43.62
2022-09-14T07:47:51.646Z,44.60
2022-09-14T07:50:24.506Z,44.56
2022-09-14T07:53:01.888Z,44.56
2022-09-14T07:55:36.131Z,44.59
2022-09-14T07:58:51.538Z,45.25
2022-09-14T08:01:55.917Z,44.88
2022-09-14T08:04:35.783Z,44.31
2022-09-14T08:08:05.518Z,44.55
2022-09-14T08:10:51.126Z,43.79
2022-09-14T08:17:16.011Z,44.01
2022-09-14T08:22:56.103Z,43.43
2022-09-14T08:25:25.048Z,44.80
2022-09-14T08:28:44.082Z,43.68
2022-09-14T08:31:48.403Z,43.19
2022-09-14T08:38:40.522Z,43.33
2022-09-14T08:41:52.077Z,43.22
2022-09-14T08:45:54.331Z,43.13
2022-09-14T08:48:56.785Z,42.71
2022-09-14T08:51:35.763Z,42.15
2022-09-14T08:54:28.542Z,42.10
2022-09-14T08:57:20.615Z,42.11
2022-09-14T09:01:20.594Z,42.71
2022-09-14T09:09:25.236Z,42.80
2022-09-14T09:13:29.844Z,42.69
2022-09-14T09:21:32.275Z,43.37
2022-09-14T09:25:18.357Z,44.00
2022-09-14T09:57:52.580Z,43.62
2022-09-14T10:01:51.826Z,43.22
2022-09-14T10:05:16.892Z,43.03
2022-09-14T10:11:52.040Z,42.71
2022-09-14T10:22:43.694Z,42.93
2022-09-14T10:25:45.099Z,42.77
2022-09-14T10:29:56.715Z,43.03
2022-09-14T10:38:23.859Z,42.95
2022-09-14T10:41:41.544Z,43.03
2022-09-14T12:13:55.969Z,44.92
2022-09-14T12:20:48.182Z,45.47
2022-09-14T12:23:52.879Z,46.13
2022-09-14T12:26:38.023Z,46.43
2022-09-14T12:30:15.287Z,47.18
2022-09-14T12:33:12.612Z,47.66
2022-09-14T12:36:16.925Z,47.94
2022-09-14T12:39:30.321Z,48.77
2022-09-14T12:42:32.111Z,49.12
2022-09-14T12:45:51.095Z,50.60
2022-09-14T12:48:46.991Z,52.43
2022-09-14T12:51:41.028Z,53.78
2022-09-14T12:54:32.594Z,55.95
2022-09-14T12:57:52.819Z,57.65
2022-09-14T13:00:31.143Z,58.08
2022-09-14T13:03:34.281Z,57.17
2022-09-14T13:06:24.307Z,55.19
2022-09-14T13:09:01.274Z,53.31
2022-09-14T13:11:43.096Z,51.73
2022-09-14T13:14:25.686Z,50.56
2022-09-14T13:17:03.127Z,49.74
2022-09-14T13:19:39.210Z,49.12
2022-09-14T13:22:27.275Z,49.04
2022-09-14T13:24:59.772Z,48.63
2022-09-14T13:27:49.284Z,48.47
2022-09-14T13:30:28.512Z,47.46
2022-09-14T13:33:05.015Z,46.99
2022-09-14T13:36:01.320Z,47.31
2022-09-14T13:38:40.939Z,48.35
2022-09-14T13:41:23.035Z,48.42
2022-09-14T13:44:03.690Z,48.20
2022-09-14T13:46:44.361Z,47.94
2022-09-14T13:53:08.060Z,48.07
2022-09-14T13:56:36.498Z,48.50
2022-09-14T14:03:52.256Z,48.36
2022-09-14T14:06:45.588Z,48.14
2022-09-14T14:19:02.926Z,48.75
2022-09-14T14:22:43.853Z,48.34
2022-09-14T14:26:32.649Z,48.49
2022-09-14T14:34:48.201Z,48.24
2022-09-14T14:37:24.920Z,47.75
2022-09-14T14:40:03.855Z,47.64
2022-09-14T14:45:48.952Z,47.87
2022-09-14T14:52:31.347Z,48.09
2022-09-14T14:55:34.993Z,47.93
2022-09-14T14:58:21.495Z,48.16
2022-09-14T15:00:59.551Z,48.02
2022-09-14T15:03:36.955Z,47.98
2022-09-14T15:06:32.781Z,48.40
2022-09-14T15:09:29.646Z,48.47
2022-09-14T15:12:28.986Z,48.83
2022-09-14T15:15:01.399Z,48.77
2022-09-14T15:20:31.193Z,48.50
2022-09-14T15:23:02.293Z,47.23
2022-09-14T15:25:33.400Z,46.71
2022-09-14T15:28:05.518Z,46.61
2022-09-14T16:11:27.913Z,48.31
2022-09-14T16:14:19.518Z,47.97
2022-09-14T16:17:02.227Z,47.91
2022-09-14T16:20:04.956Z,48.35
2022-09-14T16:23:03.979Z,48.54
2022-09-14T16:25:47.355Z,48.44
2022-09-14T16:28:21.355Z,48.43
2022-09-14T16:31:22.335Z,48.38
2022-09-14T16:37:51.609Z,49.00
2022-09-14T16:41:18.401Z,48.47
2022-09-14T16:44:43.661Z,48.73
2022-09-14T16:47:31.337Z,48.58
2022-09-14T16:50:31.227Z,50.49
2022-09-14T16:53:51.240Z,49.54
2022-09-14T16:59:43.796Z,48.91
2022-09-14T17:02:16.063Z,48.90
2022-09-14T17:05:32.550Z,49.20
2022-09-14T17:08:12.840Z,49.26
2022-09-14T17:10:55.582Z,49.02
2022-09-14T17:14:19.722Z,49.33
2022-09-14T17:17:23.253Z,49.86
2022-09-14T17:20:04.378Z,50.32
2022-09-14T17:22:43.663Z,50.26
2022-09-14T17:25:17.030Z,50.39
2022-09-14T17:27:53.279Z,51.81
2022-09-14T17:30:56.192Z,51.56
2022-09-14T17:34:12.116Z,50.67
2022-09-14T17:37:17.122Z,51.26
2022-09-14T17:40:13.214Z,50.56
2022-09-14T17:43:13.239Z,50.66
2022-09-14T17:46:23.066Z,50.82
2022-09-14T17:48:59.697Z,50.27
2022-09-14T17:51:44.152Z,50.32
2022-09-14T17:54:17.192Z,50.19
2022-09-14T17:57:15.957Z,51.34
2022-09-14T17:59:59.801Z,50.91
2022-09-14T18:02:41.421Z,50.12
2022-09-14T18:05:19.095Z,50.14
2022-09-14T18:08:15.999Z,49.95
2022-09-14T18:11:16.072Z,51.17
2022-09-14T18:13:55.450Z,50.90
2022-09-14T18:16:44.338Z,51.24
2022-09-14T18:19:21.453Z,50.67
2022-09-14T18:22:00.706Z,50.14
2022-09-14T18:24:45.177Z,50.12
2022-09-14T18:27:38.383Z,50.33
2022-09-14T18:31:26.159Z,50.43
2022-09-14T18:34:58.357Z,50.52
2022-09-14T18:41:37.211Z,50.47
2022-09-14T18:44:26.278Z,50.35
2022-09-14T18:47:34.930Z,50.05
2022-09-14T18:50:25.115Z,50.22
2022-09-14T18:53:27.225Z,50.14
2022-09-14T18:56:34.963Z,50.13
2022-09-14T19:04:05.328Z,50.26
2022-09-14T19:11:57.709Z,50.37
2022-09-14T19:14:38.456Z,50.35
2022-09-14T19:17:23.477Z,50.04
2022-09-14T19:20:00.795Z,49.92
2022-09-14T19:22:36.156Z,49.45
2022-09-14T19:25:35.773Z,49.73
2022-09-14T19:28:38.065Z,50.16
2022-09-14T19:34:48.376Z,51.00
2022-09-14T19:37:29.422Z,51.26
2022-09-14T19:40:19.766Z,50.21
2022-09-14T19:42:59.783Z,50.26
2022-09-14T19:45:35.554Z,50.21
2022-09-14T19:51:52.944Z,50.58
2022-09-14T19:54:40.885Z,50.78
2022-09-14T19:57:36.163Z,50.42
2022-09-14T20:00:37.372Z,50.24
2022-09-14T20:03:22.925Z,50.15
2022-09-14T20:06:41.553Z,50.16
2022-09-14T20:09:32.361Z,50.38
2022-09-14T20:15:59.185Z,50.54
2022-09-14T20:18:44.292Z,51.22
2022-09-14T20:21:27.218Z,50.64
2022-09-14T20:24:55.390Z,50.70
2022-09-14T20:28:34.982Z,50.91
2022-09-14T20:41:26.014Z,51.45
2022-09-14T20:59:08.277Z,51.76
2022-09-14T21:02:25.341Z,51.60
2022-09-14T21:05:14.299Z,51.35
2022-09-14T22:52:48.965Z,51.01
2022-09-14T23:26:41.132Z,50.03
2022-09-14T23:30:00.855Z,50.11
2022-09-14T23:33:00.091Z,49.51
2022-09-14T23:40:55.732Z,49.82
2022-09-14T23:44:48.042Z,49.74
2022-09-14T23:47:33.993Z,49.29
2022-09-14T23:50:31.485Z,49.00
2022-09-14T23:53:20.932Z,48.84
2022-09-14T23:56:50.367Z,48.86
